createdAt,value
2018-03-11T00:00:56.204Z,985.24
2018-03-11T00:02:02.431Z,985.22
2018-03-11T00:03:08.682Z,985.26
2018-03-11T00:04:14.933Z,985.24
2018-03-11T00:05:21.166Z,985.30
2018-03-11T00:06:27.429Z,985.26
2018-03-11T00:07:33.644Z,985.24
2018-03-11T00:08:39.897Z,985.22
2018-03-11T00:09:46.133Z,985.24
2018-03-11T00:10:52.392Z,985.28
2018-03-11T00:11:58.617Z,985.28
2018-03-11T00:13:04.860Z,985.29
2018-03-11T00:14:11.122Z,985.34
2018-03-11T00:15:17.346Z,985.29
2018-03-11T00:16:23.611Z,985.31
2018-03-11T00:17:29.927Z,985.32
2018-03-11T00:18:36.116Z,985.35
2018-03-11T00:19:42.322Z,985.38
2018-03-11T00:20:48.577Z,985.36
2018-03-11T00:21:54.828Z,985.36
2018-03-11T00:23:01.049Z,985.38
2018-03-11T00:24:07.284Z,985.35
2018-03-11T00:25:13.543Z,985.37
2018-03-11T00:26:19.826Z,985.29
2018-03-11T00:27:27.024Z,985.37
2018-03-11T00:28:32.261Z,985.33
2018-03-11T00:29:38.514Z,985.35
2018-03-11T00:30:44.765Z,985.35
2018-03-11T00:31:51.025Z,985.28
2018-03-11T00:32:57.311Z,985.31
2018-03-11T00:34:03.481Z,985.30
2018-03-11T00:35:09.736Z,985.28
2018-03-11T00:36:15.973Z,985.29
2018-03-11T00:37:22.243Z,985.27
2018-03-11T00:38:28.467Z,985.26
2018-03-11T00:39:34.711Z,985.29
2018-03-11T00:40:40.947Z,985.22
2018-03-11T00:41:47.230Z,985.21
2018-03-11T00:42:53.450Z,985.23
2018-03-11T00:43:59.689Z,985.23
2018-03-11T00:45:05.935Z,985.21
2018-03-11T00:46:12.172Z,985.22
2018-03-11T00:47:18.435Z,985.20
2018-03-11T00:48:24.678Z,985.18
2018-03-11T00:49:30.904Z,985.10
2018-03-11T00:50:37.158Z,985.13
2018-03-11T00:51:43.414Z,985.10
2018-03-11T00:52:49.653Z,985.12
2018-03-11T00:53:55.885Z,985.11
2018-03-11T00:55:02.129Z,985.08
2018-03-11T00:56:08.371Z,985.08
2018-03-11T00:57:14.636Z,985.02
2018-03-11T00:58:20.865Z,985.01
2018-03-11T00:59:27.108Z,984.97
2018-03-11T01:00:33.352Z,984.96
2018-03-11T01:01:39.616Z,984.95
2018-03-11T01:02:45.941Z,984.97
2018-03-11T01:03:52.096Z,984.87
2018-03-11T01:04:58.355Z,984.83
2018-03-11T01:06:04.578Z,984.81
2018-03-11T01:07:10.822Z,984.79
2018-03-11T01:08:17.092Z,984.79
2018-03-11T01:09:23.324Z,984.77
2018-03-11T01:10:29.560Z,984.73
2018-03-11T01:11:35.811Z,984.72
2018-03-11T01:12:42.076Z,984.77
2018-03-11T01:13:48.295Z,984.75
2018-03-11T01:14:54.551Z,984.76
2018-03-11T01:16:00.791Z,984.70
2018-03-11T01:17:07.034Z,984.68
2018-03-11T01:18:13.289Z,984.64
2018-03-11T01:19:19.506Z,984.68
2018-03-11T01:20:25.746Z,984.63
2018-03-11T01:21:31.991Z,984.59
2018-03-11T01:22:38.235Z,984.54
2018-03-11T01:23:44.496Z,984.53
2018-03-11T01:24:50.713Z,984.48
2018-03-11T01:25:57.455Z,984.51
2018-03-11T01:27:03.199Z,984.49
2018-03-11T01:28:09.449Z,984.50
2018-03-11T01:29:15.687Z,984.46
2018-03-11T01:30:21.913Z,984.48
2018-03-11T01:31:28.160Z,984.50
2018-03-11T01:32:34.405Z,984.47
2018-03-11T01:33:40.670Z,984.45
2018-03-11T01:34:46.888Z,984.40
2018-03-11T01:35:53.117Z,984.37
2018-03-11T01:36:59.359Z,984.34
2018-03-11T01:38:05.599Z,984.24
2018-03-11T01:39:11.944Z,984.24
2018-03-11T01:40:18.088Z,984.22
2018-03-11T01:41:24.317Z,984.20
2018-03-11T01:42:30.559Z,984.20
2018-03-11T01:43:36.817Z,984.20
2018-03-11T01:44:43.032Z,984.15
2018-03-11T01:45:49.276Z,984.15
2018-03-11T01:46:55.510Z,984.13
2018-03-11T01:48:01.744Z,984.12
2018-03-11T01:49:08.014Z,984.12
2018-03-11T01:50:14.234Z,984.15
2018-03-11T01:51:20.462Z,984.18
2018-03-11T01:52:26.707Z,984.12
2018-03-11T01:53:32.952Z,984.08
2018-03-11T01:54:39.201Z,984.10
2018-03-11T01:55:45.430Z,984.08
2018-03-11T01:56:51.683Z,984.08
2018-03-11T01:57:57.912Z,984.07
2018-03-11T01:59:04.151Z,984.04
2018-03-11T02:00:10.406Z,983.99
2018-03-11T02:01:16.660Z,983.95
2018-03-11T02:02:22.867Z,983.95
2018-03-11T02:03:29.107Z,983.93
2018-03-11T02:04:35.373Z,983.90
2018-03-11T02:05:41.600Z,983.90
2018-03-11T02:06:47.850Z,983.83
2018-03-11T02:07:54.066Z,983.82
2018-03-11T02:09:00.301Z,983.84
2018-03-11T02:10:06.604Z,983.78
2018-03-11T02:11:12.790Z,983.81
2018-03-11T02:12:19.018Z,983.76
2018-03-11T02:13:25.267Z,983.75
2018-03-11T02:14:31.986Z,983.73
2018-03-11T02:15:37.760Z,983.73
2018-03-11T02:16:43.993Z,983.74
2018-03-11T02:17:50.211Z,983.70
2018-03-11T02:18:56.451Z,983.67
2018-03-11T02:20:02.717Z,983.66
2018-03-11T02:21:08.941Z,983.62
2018-03-11T02:22:15.171Z,983.63
2018-03-11T02:23:21.419Z,983.63
2018-03-11T02:24:27.655Z,983.54
2018-03-11T02:25:33.908Z,983.50
2018-03-11T02:26:40.124Z,983.43
2018-03-11T02:27:46.373Z,983.44
2018-03-11T02:28:53.119Z,983.43
2018-03-11T02:29:58.858Z,983.46
2018-03-11T02:31:05.122Z,983.49
2018-03-11T02:32:11.343Z,983.54
2018-03-11T02:33:17.580Z,983.59
2018-03-11T02:34:23.810Z,983.65
2018-03-11T02:35:30.089Z,983.62
2018-03-11T02:36:36.294Z,983.60
2018-03-11T02:37:42.535Z,983.59
2018-03-11T02:38:48.788Z,983.52
2018-03-11T02:39:55.031Z,983.47
2018-03-11T02:41:01.292Z,983.42
2018-03-11T02:42:07.519Z,983.40
2018-03-11T02:43:13.750Z,983.43
2018-03-11T02:44:19.976Z,983.43
2018-03-11T02:45:26.218Z,983.48
2018-03-11T02:46:33.479Z,983.48
2018-03-11T02:47:39.703Z,983.43
2018-03-11T02:48:44.931Z,983.38
2018-03-11T02:49:51.177Z,983.34
2018-03-11T02:50:57.406Z,983.35
2018-03-11T02:52:03.681Z,983.37
2018-03-11T02:53:09.883Z,983.37
2018-03-11T02:54:16.128Z,983.35
2018-03-11T02:55:23.362Z,983.34
2018-03-11T02:56:28.632Z,983.36
2018-03-11T02:57:34.852Z,983.38
2018-03-11T02:58:41.080Z,983.39
2018-03-11T02:59:47.320Z,983.41
2018-03-11T03:00:53.555Z,983.37
2018-03-11T03:01:59.826Z,983.35
2018-03-11T03:03:06.059Z,983.34
2018-03-11T03:04:12.278Z,983.32
2018-03-11T03:05:19.004Z,983.31
2018-03-11T03:06:24.788Z,983.28
2018-03-11T03:07:31.002Z,983.29
2018-03-11T03:08:37.242Z,983.28
2018-03-11T03:09:43.476Z,983.27
2018-03-11T03:10:49.715Z,983.24
2018-03-11T03:11:55.966Z,983.20
2018-03-11T03:13:02.176Z,983.21
2018-03-11T03:14:08.418Z,983.15
2018-03-11T03:15:14.644Z,983.13
2018-03-11T03:16:20.892Z,983.09
2018-03-11T03:17:27.151Z,983.08
2018-03-11T03:18:33.361Z,983.04
2018-03-11T03:19:40.103Z,983.10
2018-03-11T03:20:45.835Z,983.17
2018-03-11T03:21:52.102Z,983.18
2018-03-11T03:22:58.334Z,983.16
2018-03-11T03:24:04.570Z,983.06
2018-03-11T03:25:10.788Z,983.04
2018-03-11T03:26:17.036Z,983.05
2018-03-11T03:27:23.289Z,983.03
2018-03-11T03:28:29.501Z,982.97
2018-03-11T03:29:35.749Z,983.00
2018-03-11T03:30:41.992Z,983.02
2018-03-11T03:31:48.245Z,983.08
2018-03-11T03:32:54.450Z,983.05
2018-03-11T03:34:01.182Z,982.99
2018-03-11T03:35:06.989Z,982.99
2018-03-11T03:36:13.160Z,982.92
2018-03-11T03:37:19.430Z,982.87
2018-03-11T03:38:25.656Z,982.87
2018-03-11T03:39:31.932Z,982.80
2018-03-11T03:40:38.100Z,982.82
2018-03-11T03:41:44.326Z,982.84
2018-03-11T03:42:50.604Z,982.84
2018-03-11T03:43:56.808Z,982.83
2018-03-11T03:45:03.044Z,982.81
2018-03-11T03:46:09.268Z,982.78
2018-03-11T03:47:15.505Z,982.78
2018-03-11T03:48:21.766Z,982.80
2018-03-11T03:49:28.972Z,982.82
2018-03-11T03:50:34.213Z,982.78
2018-03-11T03:51:40.433Z,982.84
2018-03-11T03:52:46.688Z,982.78
2018-03-11T03:53:52.878Z,982.82
2018-03-11T03:54:59.115Z,982.81
2018-03-11T03:56:05.339Z,982.81
2018-03-11T03:57:11.555Z,982.80
2018-03-11T03:58:17.807Z,982.79
2018-03-11T03:59:23.992Z,982.80
2018-03-11T04:00:30.212Z,982.80
2018-03-11T04:01:36.437Z,982.78
2018-03-11T04:02:42.657Z,982.77
2018-03-11T04:03:48.881Z,982.73
2018-03-11T04:04:55.272Z,982.68
2018-03-11T04:06:01.288Z,982.69
2018-03-11T04:07:07.519Z,982.74
2018-03-11T04:08:13.745Z,982.74
2018-03-11T04:09:19.936Z,982.78
2018-03-11T04:10:26.154Z,982.76
2018-03-11T04:11:32.352Z,982.77
2018-03-11T04:12:38.564Z,982.74
2018-03-11T04:13:44.804Z,982.77
2018-03-11T04:14:50.996Z,982.81
2018-03-11T04:15:57.686Z,982.86
2018-03-11T04:17:03.408Z,982.86
2018-03-11T04:18:09.620Z,982.81
2018-03-11T04:19:15.840Z,982.82
2018-03-11T04:20:22.027Z,982.80
2018-03-11T04:21:28.729Z,982.75
2018-03-11T04:22:34.442Z,982.71
2018-03-11T04:23:40.672Z,982.66
2018-03-11T04:24:46.865Z,982.63
2018-03-11T04:25:53.068Z,982.63
2018-03-11T04:26:59.277Z,982.61
2018-03-11T04:28:05.476Z,982.56
2018-03-11T04:29:12.228Z,982.62
2018-03-11T04:30:17.948Z,982.54
2018-03-11T04:31:24.098Z,982.53
2018-03-11T04:32:30.318Z,982.49
2018-03-11T04:33:36.522Z,982.51
2018-03-11T04:34:42.752Z,982.54
2018-03-11T04:35:48.935Z,982.54
2018-03-11T04:36:55.640Z,982.47
2018-03-11T04:38:01.369Z,982.42
2018-03-11T04:39:07.577Z,982.40
2018-03-11T04:40:13.811Z,982.38
2018-03-11T04:41:20.469Z,982.41
2018-03-11T04:42:26.182Z,982.40
2018-03-11T04:43:32.401Z,982.41
2018-03-11T04:44:39.634Z,982.40
2018-03-11T04:45:44.817Z,982.41
2018-03-11T04:46:51.031Z,982.31
2018-03-11T04:47:57.423Z,982.28
2018-03-11T04:49:03.450Z,982.20
2018-03-11T04:50:09.666Z,982.13
2018-03-11T04:51:15.931Z,982.09
2018-03-11T04:52:22.062Z,982.04
2018-03-11T04:53:28.762Z,982.06
2018-03-11T04:54:35.482Z,982.02
2018-03-11T04:55:40.703Z,982.00
2018-03-11T04:56:46.897Z,981.96
2018-03-11T04:57:53.113Z,981.95
2018-03-11T04:58:59.312Z,981.91
2018-03-11T05:00:05.539Z,981.88
2018-03-11T05:01:11.717Z,981.85
2018-03-11T05:02:17.933Z,981.87
2018-03-11T05:03:24.137Z,981.86
2018-03-11T05:04:30.337Z,981.90
2018-03-11T05:05:36.568Z,981.89
2018-03-11T05:06:42.760Z,981.91
2018-03-11T05:07:48.974Z,981.92
2018-03-11T05:08:55.177Z,981.89
2018-03-11T05:10:01.370Z,981.86
2018-03-11T05:11:07.612Z,981.82
2018-03-11T05:12:13.795Z,981.78
2018-03-11T05:13:19.993Z,981.76
2018-03-11T05:14:26.218Z,981.77
2018-03-11T05:15:32.435Z,981.83
2018-03-11T05:16:38.643Z,981.84
2018-03-11T05:17:44.822Z,981.87
2018-03-11T05:18:51.041Z,981.82
2018-03-11T05:19:57.238Z,981.78
2018-03-11T05:21:03.446Z,981.73
2018-03-11T05:22:09.669Z,981.76
2018-03-11T05:23:15.922Z,981.74
2018-03-11T05:24:22.050Z,981.70
2018-03-11T05:25:28.748Z,981.62
2018-03-11T05:26:34.512Z,981.62
2018-03-11T05:27:40.670Z,981.59
2018-03-11T05:28:46.872Z,981.60
2018-03-11T05:29:53.079Z,981.62
2018-03-11T05:30:59.287Z,981.67
2018-03-11T05:32:05.503Z,981.67
2018-03-11T05:33:11.689Z,981.66
2018-03-11T05:34:17.889Z,981.62
2018-03-11T05:35:24.096Z,981.62
2018-03-11T05:36:30.290Z,981.64
2018-03-11T05:37:36.706Z,981.65
2018-03-11T05:38:42.698Z,981.65
2018-03-11T05:39:48.898Z,981.69
2018-03-11T05:40:55.097Z,981.68
2018-03-11T05:42:01.317Z,981.70
2018-03-11T05:43:07.500Z,981.66
2018-03-11T05:44:13.692Z,981.64
2018-03-11T05:45:19.898Z,981.63
2018-03-11T05:46:26.090Z,981.66
2018-03-11T05:47:32.320Z,981.66
2018-03-11T05:48:38.489Z,981.69
2018-03-11T05:49:44.687Z,981.69
2018-03-11T05:50:50.889Z,981.73
2018-03-11T05:51:57.116Z,981.74
2018-03-11T05:53:03.785Z,981.69
2018-03-11T05:54:09.486Z,981.66
2018-03-11T05:55:15.680Z,981.67
2018-03-11T05:56:21.940Z,981.65
2018-03-11T05:57:28.092Z,981.65
2018-03-11T05:58:34.260Z,981.63
2018-03-11T05:59:40.466Z,981.56
2018-03-11T06:00:46.661Z,981.57
2018-03-11T06:01:52.842Z,981.57
2018-03-11T06:02:59.066Z,981.54
2018-03-11T06:04:05.232Z,981.56
2018-03-11T06:05:11.440Z,981.49
2018-03-11T06:06:17.671Z,981.49
2018-03-11T06:07:23.822Z,981.50
2018-03-11T06:08:30.038Z,981.50
2018-03-11T06:09:36.226Z,981.48
2018-03-11T06:10:42.426Z,981.47
2018-03-11T06:11:48.624Z,981.54
2018-03-11T06:12:54.854Z,981.53
2018-03-11T06:14:01.040Z,981.53
2018-03-11T06:15:07.237Z,981.55
2018-03-11T06:16:13.433Z,981.54
2018-03-11T06:17:19.635Z,981.58
2018-03-11T06:18:25.951Z,981.55
2018-03-11T06:19:32.058Z,981.54
2018-03-11T06:20:38.262Z,981.54
2018-03-11T06:21:44.460Z,981.51
2018-03-11T06:22:51.685Z,981.53
2018-03-11T06:23:56.897Z,981.49
2018-03-11T06:25:03.091Z,981.44
2018-03-11T06:26:09.297Z,981.44
2018-03-11T06:27:15.521Z,981.43
2018-03-11T06:28:21.714Z,981.39
2018-03-11T06:29:27.940Z,981.39
2018-03-11T06:30:34.126Z,981.35
2018-03-11T06:31:40.345Z,981.38
2018-03-11T06:32:46.565Z,981.40
2018-03-11T06:33:52.807Z,981.35
2018-03-11T06:34:58.994Z,981.28
2018-03-11T06:36:05.208Z,981.30
2018-03-11T06:37:11.409Z,981.29
2018-03-11T06:38:17.639Z,981.25
2018-03-11T06:39:23.972Z,981.26
2018-03-11T06:40:30.071Z,981.28
2018-03-11T06:41:36.297Z,981.27
2018-03-11T06:42:42.506Z,981.28
2018-03-11T06:43:48.756Z,981.22
2018-03-11T06:44:54.962Z,981.18
2018-03-11T06:46:01.186Z,981.16
2018-03-11T06:47:07.593Z,981.13
2018-03-11T06:48:13.621Z,981.18
2018-03-11T06:49:19.952Z,981.18
2018-03-11T06:50:26.066Z,981.17
2018-03-11T06:51:32.285Z,981.12
2018-03-11T06:52:38.512Z,981.14
2018-03-11T06:53:44.734Z,981.15
2018-03-11T06:54:50.981Z,981.17
2018-03-11T06:55:57.187Z,981.17
2018-03-11T06:57:03.926Z,981.15
2018-03-11T06:58:09.696Z,981.15
2018-03-11T06:59:15.880Z,981.03
2018-03-11T07:00:22.127Z,981.06
2018-03-11T07:01:28.359Z,981.07
2018-03-11T07:02:35.077Z,981.17
2018-03-11T07:03:40.820Z,981.20
2018-03-11T07:04:47.085Z,981.17
2018-03-11T07:05:53.321Z,981.16
2018-03-11T07:06:59.539Z,981.13
2018-03-11T07:08:05.801Z,981.14
2018-03-11T07:09:12.027Z,981.17
2018-03-11T07:10:18.771Z,981.12
2018-03-11T07:11:24.566Z,981.08
2018-03-11T07:12:30.785Z,981.03
2018-03-11T07:13:37.049Z,981.03
2018-03-11T07:14:43.289Z,981.08
2018-03-11T07:15:49.566Z,981.13
2018-03-11T07:16:55.807Z,981.12
2018-03-11T07:18:02.061Z,981.11
2018-03-11T07:19:08.337Z,981.07
2018-03-11T07:20:14.597Z,981.02
2018-03-11T07:21:20.886Z,980.95
2018-03-11T07:22:27.122Z,980.93
2018-03-11T07:23:33.378Z,980.93
2018-03-11T07:24:39.646Z,980.98
2018-03-11T07:25:45.938Z,980.91
2018-03-11T07:26:52.181Z,980.92
2018-03-11T07:27:58.451Z,980.87
2018-03-11T07:29:04.714Z,980.78
2018-03-11T07:30:10.991Z,980.75
2018-03-11T07:31:17.282Z,980.71
2018-03-11T07:32:24.016Z,980.75
2018-03-11T07:33:29.787Z,980.74
2018-03-11T07:34:36.048Z,980.65
2018-03-11T07:35:42.333Z,980.65
2018-03-11T07:36:49.084Z,980.63
2018-03-11T07:37:54.828Z,980.64
2018-03-11T07:39:01.575Z,980.66
2018-03-11T07:40:07.338Z,980.71
2018-03-11T07:41:14.128Z,980.73
2018-03-11T07:42:19.933Z,980.78
2018-03-11T07:43:26.099Z,980.88
2018-03-11T07:44:32.346Z,980.87
2018-03-11T07:45:38.607Z,980.83
2018-03-11T07:46:44.867Z,980.89
2018-03-11T07:47:51.596Z,980.89
2018-03-11T07:48:57.915Z,980.93
2018-03-11T07:50:03.607Z,980.93
2018-03-11T07:51:09.862Z,980.96
2018-03-11T07:52:16.146Z,980.93
2018-03-11T07:53:22.390Z,980.97
2018-03-11T07:54:28.689Z,981.01
2018-03-11T07:55:34.932Z,981.13
2018-03-11T07:56:41.721Z,981.12
2018-03-11T07:57:47.523Z,981.15
2018-03-11T07:58:53.794Z,981.13
2018-03-11T08:00:00.077Z,981.12
2018-03-11T08:01:06.364Z,981.15
2018-03-11T08:02:12.663Z,981.12
2018-03-11T08:03:19.000Z,981.08
2018-03-11T08:04:25.254Z,981.14
2018-03-11T08:05:32.535Z,981.17
2018-03-11T08:06:37.918Z,981.18
2018-03-11T08:07:44.162Z,981.16
2018-03-11T08:08:50.421Z,981.14
2018-03-11T08:09:56.704Z,981.19
2018-03-11T08:11:02.991Z,981.18
2018-03-11T08:12:09.284Z,981.18
2018-03-11T08:13:15.593Z,981.15
2018-03-11T08:14:21.929Z,981.12
2018-03-11T08:15:28.145Z,981.04
2018-03-11T08:16:34.427Z,981.00
2018-03-11T08:17:40.735Z,980.99
2018-03-11T08:18:47.006Z,980.95
2018-03-11T08:19:53.284Z,980.92
2018-03-11T08:20:59.567Z,981.00
2018-03-11T08:22:05.951Z,980.99
2018-03-11T08:23:12.156Z,981.00
2018-03-11T08:24:18.403Z,980.99
2018-03-11T08:25:24.675Z,981.05
2018-03-11T08:26:31.459Z,981.05
2018-03-11T08:27:37.244Z,981.00
2018-03-11T08:28:43.561Z,981.02
2018-03-11T08:29:49.949Z,980.98
2018-03-11T08:30:56.613Z,980.98
2018-03-11T08:32:02.420Z,980.99
2018-03-11T08:33:08.716Z,980.93
2018-03-11T08:34:15.026Z,980.90
2018-03-11T08:35:21.305Z,980.94
2018-03-11T08:36:27.617Z,980.94
2018-03-11T08:37:33.919Z,980.93
2018-03-11T08:38:40.253Z,980.92
2018-03-11T08:39:46.567Z,980.94
2018-03-11T08:40:52.867Z,980.87
2018-03-11T08:41:59.198Z,980.85
2018-03-11T08:43:05.534Z,980.87
2018-03-11T08:44:11.905Z,980.89
2018-03-11T08:45:18.225Z,980.85
2018-03-11T08:46:24.564Z,980.83
2018-03-11T08:47:31.236Z,980.84
2018-03-11T08:48:37.314Z,980.77
2018-03-11T08:49:43.694Z,980.81
2018-03-11T08:50:50.035Z,980.82
2018-03-11T08:51:56.424Z,980.83
2018-03-11T08:53:02.809Z,980.79
2018-03-11T08:54:09.210Z,980.79
2018-03-11T08:55:15.585Z,980.79
2018-03-11T08:56:21.977Z,980.76
2018-03-11T08:57:28.360Z,980.72
2018-03-11T08:58:34.758Z,980.68
2018-03-11T08:59:41.233Z,980.59
2018-03-11T09:00:47.574Z,980.53
2018-03-11T09:01:53.978Z,980.54
2018-03-11T09:03:00.390Z,980.48
2018-03-11T09:04:06.805Z,980.49
2018-03-11T09:05:13.233Z,980.44
2018-03-11T09:06:19.634Z,980.42
2018-03-11T09:07:26.503Z,980.37
2018-03-11T09:08:32.423Z,980.31
2018-03-11T09:09:38.868Z,980.28
2018-03-11T09:10:45.254Z,980.23
2018-03-11T09:11:51.677Z,980.21
2018-03-11T09:12:58.107Z,980.20
2018-03-11T09:14:04.531Z,980.18
2018-03-11T09:15:10.967Z,980.13
2018-03-11T09:16:17.412Z,980.11
2018-03-11T09:17:23.818Z,980.07
2018-03-11T09:18:30.262Z,980.13
2018-03-11T09:19:37.204Z,980.22
2018-03-11T09:20:43.112Z,980.23
2018-03-11T09:21:49.568Z,980.25
2018-03-11T09:22:56.506Z,980.32
2018-03-11T09:24:02.448Z,980.36
2018-03-11T09:25:08.898Z,980.46
2018-03-11T09:26:15.310Z,980.52
2018-03-11T09:27:22.238Z,980.57
2018-03-11T09:28:28.186Z,980.55
2018-03-11T09:29:34.638Z,980.60
2018-03-11T09:30:41.107Z,980.61
2018-03-11T09:31:47.519Z,980.61
2018-03-11T09:32:53.954Z,980.59
2018-03-11T09:34:00.891Z,980.65
2018-03-11T09:35:06.897Z,980.70
2018-03-11T09:36:13.289Z,980.71
2018-03-11T09:37:19.716Z,980.74
2018-03-11T09:38:26.149Z,980.75
2018-03-11T09:39:32.593Z,980.78
2018-03-11T09:40:39.051Z,980.84
2018-03-11T09:41:49.029Z,980.84
2018-03-11T09:42:51.935Z,980.86
2018-03-11T09:43:58.367Z,980.89
2018-03-11T09:45:04.821Z,980.88
2018-03-11T09:46:11.773Z,980.87
2018-03-11T09:47:17.740Z,980.83
2018-03-11T09:48:24.157Z,980.85
2018-03-11T09:49:30.617Z,980.86
2018-03-11T09:50:37.056Z,980.88
2018-03-11T09:51:43.531Z,980.81
2018-03-11T09:52:50.448Z,980.82
2018-03-11T09:53:56.408Z,980.73
2018-03-11T09:55:02.875Z,980.70
2018-03-11T09:56:09.341Z,980.74
2018-03-11T09:57:15.772Z,980.78
2018-03-11T09:58:22.246Z,980.79
2018-03-11T09:59:28.705Z,980.76
2018-03-11T10:00:35.162Z,980.80
2018-03-11T10:01:41.646Z,980.72
2018-03-11T10:02:48.101Z,980.64
2018-03-11T10:03:55.065Z,980.61
2018-03-11T10:05:01.065Z,980.60
2018-03-11T10:06:07.535Z,980.63
2018-03-11T10:07:14.030Z,980.67
2018-03-11T10:08:20.494Z,980.60
2018-03-11T10:09:27.002Z,980.60
2018-03-11T10:10:33.534Z,980.63
2018-03-11T10:11:39.985Z,980.66
2018-03-11T10:12:46.457Z,980.58
2018-03-11T10:13:52.954Z,980.54
2018-03-11T10:14:59.468Z,980.57
2018-03-11T10:16:05.969Z,980.62
2018-03-11T10:17:12.495Z,980.58
2018-03-11T10:18:18.989Z,980.61
2018-03-11T10:19:25.507Z,980.63
2018-03-11T10:20:32.012Z,980.63
2018-03-11T10:21:39.008Z,980.60
2018-03-11T10:22:45.056Z,980.51
2018-03-11T10:23:51.545Z,980.53
2018-03-11T10:24:58.051Z,980.48
2018-03-11T10:26:05.077Z,980.50
2018-03-11T10:27:11.106Z,980.46
2018-03-11T10:28:17.631Z,980.44
2018-03-11T10:29:24.118Z,980.51
2018-03-11T10:30:30.646Z,980.43
2018-03-11T10:31:37.172Z,980.43
2018-03-11T10:32:43.715Z,980.43
2018-03-11T10:33:50.223Z,980.43
2018-03-11T10:34:56.754Z,980.48
2018-03-11T10:36:03.342Z,980.49
2018-03-11T10:37:09.811Z,980.51
2018-03-11T10:38:16.377Z,980.52
2018-03-11T10:39:22.901Z,980.53
2018-03-11T10:40:29.422Z,980.51
2018-03-11T10:41:35.952Z,980.50
2018-03-11T10:42:42.508Z,980.49
2018-03-11T10:43:49.026Z,980.52
2018-03-11T10:44:55.549Z,980.52
2018-03-11T10:46:02.088Z,980.56
2018-03-11T10:47:08.625Z,980.61
2018-03-11T10:48:15.167Z,980.54
2018-03-11T10:49:21.683Z,980.46
2018-03-11T10:50:28.218Z,980.51
2018-03-11T10:51:34.768Z,980.51
2018-03-11T10:52:41.334Z,980.51
2018-03-11T10:53:48.343Z,980.49
2018-03-11T10:54:54.397Z,980.46
2018-03-11T10:56:00.953Z,980.48
2018-03-11T10:57:07.512Z,980.54
2018-03-11T10:58:15.088Z,980.60
2018-03-11T10:59:21.130Z,980.64
2018-03-11T11:00:27.235Z,980.64
2018-03-11T11:01:33.766Z,980.59
2018-03-11T11:02:40.309Z,980.58
2018-03-11T11:03:46.887Z,980.62
2018-03-11T11:04:53.418Z,980.62
2018-03-11T11:05:59.958Z,980.69
2018-03-11T11:07:06.503Z,980.65
2018-03-11T11:08:13.070Z,980.58
2018-03-11T11:09:19.578Z,980.57
2018-03-11T11:10:26.105Z,980.57
2018-03-11T11:11:32.632Z,980.59
2018-03-11T11:12:39.154Z,980.62
2018-03-11T11:13:45.700Z,980.61
2018-03-11T11:14:52.194Z,980.60
2018-03-11T11:15:58.718Z,980.57
2018-03-11T11:17:05.242Z,980.57
2018-03-11T11:18:11.742Z,980.56
2018-03-11T11:19:18.309Z,980.51
2018-03-11T11:20:24.782Z,980.51
2018-03-11T11:21:31.300Z,980.56
2018-03-11T11:22:37.820Z,980.49
2018-03-11T11:23:44.350Z,980.49
2018-03-11T11:24:50.872Z,980.44
2018-03-11T11:25:57.371Z,980.47
2018-03-11T11:27:04.387Z,980.53
2018-03-11T11:28:10.423Z,980.51
2018-03-11T11:29:16.964Z,980.52
2018-03-11T11:30:23.473Z,980.48
2018-03-11T11:31:29.986Z,980.43
2018-03-11T11:32:36.518Z,980.39
2018-03-11T11:33:43.521Z,980.38
2018-03-11T11:34:49.578Z,980.32
2018-03-11T11:35:56.088Z,980.25
2018-03-11T11:37:03.807Z,980.22
2018-03-11T11:38:09.149Z,980.15
2018-03-11T11:39:15.667Z,980.11
2018-03-11T11:40:22.271Z,980.08
2018-03-11T11:41:28.819Z,980.06
2018-03-11T11:42:35.324Z,980.01
2018-03-11T11:43:41.791Z,979.99
2018-03-11T11:44:48.342Z,980.06
2018-03-11T11:45:54.928Z,980.02
2018-03-11T11:47:01.398Z,980.06
2018-03-11T11:48:07.952Z,980.04
2018-03-11T11:49:14.485Z,980.01
2018-03-11T11:50:21.063Z,979.93
2018-03-11T11:51:27.590Z,979.94
2018-03-11T11:52:34.126Z,979.95
2018-03-11T11:53:40.678Z,979.92
2018-03-11T11:54:47.247Z,979.91
2018-03-11T11:55:55.272Z,979.93
2018-03-11T11:57:00.811Z,979.89
2018-03-11T11:58:07.344Z,979.83
2018-03-11T11:59:13.382Z,979.82
2018-03-11T12:00:19.917Z,979.80
2018-03-11T12:01:26.477Z,979.77
2018-03-11T12:02:32.999Z,979.70
2018-03-11T12:03:39.537Z,979.70
2018-03-11T12:04:46.089Z,979.63
2018-03-11T12:05:52.653Z,979.59
2018-03-11T12:06:59.204Z,979.66
2018-03-11T12:08:06.264Z,979.62
2018-03-11T12:09:12.348Z,979.55
2018-03-11T12:10:18.929Z,979.52
2018-03-11T12:11:25.549Z,979.50
2018-03-11T12:12:32.153Z,979.50
2018-03-11T12:13:38.786Z,979.45
2018-03-11T12:14:45.918Z,979.37
2018-03-11T12:15:52.098Z,979.37
2018-03-11T12:16:58.759Z,979.30
2018-03-11T12:18:05.366Z,979.29
2018-03-11T12:19:12.037Z,979.21
2018-03-11T12:20:18.707Z,979.09
2018-03-11T12:21:26.407Z,979.03
2018-03-11T12:22:32.050Z,979.00
2018-03-11T12:23:38.725Z,979.04
2018-03-11T12:24:45.892Z,979.07
2018-03-11T12:25:52.071Z,979.10
2018-03-11T12:26:59.237Z,979.15
2018-03-11T12:28:05.389Z,979.12
2018-03-11T12:29:12.021Z,979.05
2018-03-11T12:30:18.667Z,979.01
2018-03-11T12:31:25.306Z,978.88
2018-03-11T12:32:31.915Z,978.76
2018-03-11T12:33:38.508Z,978.76
2018-03-11T12:34:45.115Z,978.69
2018-03-11T12:35:51.721Z,978.58
2018-03-11T12:36:58.323Z,978.47
2018-03-11T12:38:05.074Z,978.32
2018-03-11T12:39:11.453Z,978.19
2018-03-11T12:40:18.521Z,978.14
2018-03-11T12:41:24.611Z,978.02
2018-03-11T12:42:31.139Z,977.97
2018-03-11T12:43:37.703Z,977.95
2018-03-11T12:44:44.261Z,977.92
2018-03-11T12:45:50.796Z,977.88
2018-03-11T12:46:57.354Z,977.91
2018-03-11T12:48:04.176Z,977.96
2018-03-11T12:49:10.919Z,978.05
2018-03-11T12:50:16.943Z,978.14
2018-03-11T12:51:23.496Z,978.12
2018-03-11T12:52:30.005Z,978.16
2018-03-11T12:53:36.534Z,978.08
2018-03-11T12:54:43.062Z,978.06
2018-03-11T12:55:49.607Z,978.09
2018-03-11T12:56:57.161Z,978.11
2018-03-11T12:58:02.737Z,978.16
2018-03-11T12:59:09.217Z,978.22
2018-03-11T13:00:15.760Z,978.24
2018-03-11T13:01:22.335Z,978.23
2018-03-11T13:02:28.933Z,978.13
2018-03-11T13:03:35.418Z,978.14
2018-03-11T13:04:41.974Z,978.08
2018-03-11T13:05:49.021Z,978.07
2018-03-11T13:06:55.121Z,978.09
2018-03-11T13:08:01.665Z,978.08
2018-03-11T13:09:08.732Z,978.08
2018-03-11T13:10:14.812Z,977.98
2018-03-11T13:11:21.418Z,978.03
2018-03-11T13:12:27.975Z,977.98
2018-03-11T13:13:34.566Z,977.97
2018-03-11T13:14:41.135Z,977.99
2018-03-11T13:15:47.725Z,978.05
2018-03-11T13:16:54.334Z,978.07
2018-03-11T13:18:00.910Z,978.08
2018-03-11T13:19:07.495Z,978.05
2018-03-11T13:20:14.071Z,978.03
2018-03-11T13:21:20.690Z,978.04
2018-03-11T13:22:27.249Z,978.06
2018-03-11T13:23:33.846Z,978.04
2018-03-11T13:24:40.406Z,978.08
2018-03-11T13:25:47.275Z,978.11
2018-03-11T13:26:54.073Z,978.10
2018-03-11T13:28:00.127Z,978.08
2018-03-11T13:29:06.698Z,978.09
2018-03-11T13:30:13.262Z,978.08
2018-03-11T13:31:19.851Z,978.06
2018-03-11T13:32:26.376Z,978.05
2018-03-11T13:33:32.930Z,978.07
2018-03-11T13:34:39.472Z,978.07
2018-03-11T13:35:46.509Z,978.05
2018-03-11T13:36:52.583Z,978.13
2018-03-11T13:37:59.111Z,978.13
2018-03-11T13:39:05.628Z,978.12
2018-03-11T13:40:12.167Z,978.09
2018-03-11T13:41:18.715Z,978.18
2018-03-11T13:42:25.224Z,978.13
2018-03-11T13:43:32.738Z,978.17
2018-03-11T13:44:38.266Z,978.18
2018-03-11T13:45:45.275Z,978.16
2018-03-11T13:46:51.319Z,978.16
2018-03-11T13:47:57.824Z,978.15